sensor_id;sensor_type;location;lat;lon;timestamp;temperature;humidity
19085;DHT22;9675;51.538;6.728;2023-07-30T00:02:06;20.00;99.90
19085;DHT22;9675;51.538;6.728;2023-07-30T00:04:34;20.00;99.90
19085;DHT22;9675;51.538;6.728;2023-07-30T00:07:01;20.00;99.90
19085;DHT22;9675;51.538;6.728;2023-07-30T00:09:28;20.00;99.90
19085;DHT22;9675;51.538;6.728;2023-07-30T00:11:55;19.90;99.90
19085;DHT22;9675;51.538;6.728;2023-07-30T00:14:22;19.90;99.90
19085;DHT22;9675;51.538;6.728;2023-07-30T00:16:49;19.90;99.90
19085;DHT22;9675;51.538;6.728;2023-07-30T00:19:16;19.90;99.90
19085;DHT22;9675;51.538;6.728;2023-07-30T00:21:46;19.80;99.90
19085;DHT22;9675;51.538;6.728;2023-07-30T00:24:13;19.80;99.90
19085;DHT22;9675;51.538;6.728;2023-07-30T00:26:40;19.80;99.90
19085;DHT22;9675;51.538;6.728;2023-07-30T00:29:07;19.80;99.90
19085;DHT22;9675;51.538;6.728;2023-07-30T00:31:34;19.70;99.90
19085;DHT22;9675;51.538;6.728;2023-07-30T00:34:01;19.70;99.90
19085;DHT22;9675;51.538;6.728;2023-07-30T00:36:28;19.70;99.90
19085;DHT22;9675;51.538;6.728;2023-07-30T00:38:56;19.60;99.90
19085;DHT22;9675;51.538;6.728;2023-07-30T00:41:23;19.60;99.90
19085;DHT22;9675;51.538;6.728;2023-07-30T00:43:50;19.60;99.90
19085;DHT22;9675;51.538;6.728;2023-07-30T00:46:17;19.50;99.90
19085;DHT22;9675;51.538;6.728;2023-07-30T00:48:45;19.50;99.90
19085;DHT22;9675;51.538;6.728;2023-07-30T00:51:13;19.50;99.90
19085;DHT22;9675;51.538;6.728;2023-07-30T00:53:42;19.50;99.90
19085;DHT22;9675;51.538;6.728;2023-07-30T00:56:10;19.50;99.90
19085;DHT22;9675;51.538;6.728;2023-07-30T00:58:38;19.40;99.90
19085;DHT22;9675;51.538;6.728;2023-07-30T01:01:06;19.40;99.90
19085;DHT22;9675;51.538;6.728;2023-07-30T01:03:34;19.30;99.90
19085;DHT22;9675;51.538;6.728;2023-07-30T01:06:01;19.30;99.90
19085;DHT22;9675;51.538;6.728;2023-07-30T01:08:29;19.30;99.90
19085;DHT22;9675;51.538;6.728;2023-07-30T01:10:57;19.30;99.90
19085;DHT22;9675;51.538;6.728;2023-07-30T01:13:27;19.30;99.90
19085;DHT22;9675;51.538;6.728;2023-07-30T01:15:55;19.20;99.90
19085;DHT22;9675;51.538;6.728;2023-07-30T01:18:22;19.20;99.90
19085;DHT22;9675;51.538;6.728;2023-07-30T01:20:54;19.20;99.90
19085;DHT22;9675;51.538;6.728;2023-07-30T01:23:24;19.10;99.90
19085;DHT22;9675;51.538;6.728;2023-07-30T01:25:56;19.10;99.90
19085;DHT22;9675;51.538;6.728;2023-07-30T01:28:29;19.10;99.90
19085;DHT22;9675;51.538;6.728;2023-07-30T01:31:03;19.10;99.90
19085;DHT22;9675;51.538;6.728;2023-07-30T01:33:32;19.10;99.90
19085;DHT22;9675;51.538;6.728;2023-07-30T01:36:01;19.00;99.90
19085;DHT22;9675;51.538;6.728;2023-07-30T01:38:30;19.00;99.90
19085;DHT22;9675;51.538;6.728;2023-07-30T01:40:58;19.00;99.90
19085;DHT22;9675;51.538;6.728;2023-07-30T01:43:25;19.00;99.90
19085;DHT22;9675;51.538;6.728;2023-07-30T01:45:52;19.00;99.90
19085;DHT22;9675;51.538;6.728;2023-07-30T01:48:19;18.90;99.90
19085;DHT22;9675;51.538;6.728;2023-07-30T01:50:46;18.90;99.90
19085;DHT22;9675;51.538;6.728;2023-07-30T01:53:15;18.80;99.90
19085;DHT22;9675;51.538;6.728;2023-07-30T01:55:42;18.80;99.90
19085;DHT22;9675;51.538;6.728;2023-07-30T01:58:12;18.80;99.90
19085;DHT22;9675;51.538;6.728;2023-07-30T02:00:39;18.80;99.90
19085;DHT22;9675;51.538;6.728;2023-07-30T02:03:07;18.80;99.90
19085;DHT22;9675;51.538;6.728;2023-07-30T02:05:33;18.80;99.90
19085;DHT22;9675;51.538;6.728;2023-07-30T02:08:00;18.80;99.90
19085;DHT22;9675;51.538;6.728;2023-07-30T02:10:29;18.80;99.90
19085;DHT22;9675;51.538;6.728;2023-07-30T02:12:56;18.80;99.90
19085;DHT22;9675;51.538;6.728;2023-07-30T02:15:23;18.80;99.90
19085;DHT22;9675;51.538;6.728;2023-07-30T02:17:50;18.70;99.90
19085;DHT22;9675;51.538;6.728;2023-07-30T02:20:17;18.70;99.90
19085;DHT22;9675;51.538;6.728;2023-07-30T02:22:44;18.70;99.90
19085;DHT22;9675;51.538;6.728;2023-07-30T02:25:11;18.70;99.90
19085;DHT22;9675;51.538;6.728;2023-07-30T02:27:39;18.60;99.90
19085;DHT22;9675;51.538;6.728;2023-07-30T02:30:07;18.60;99.90
19085;DHT22;9675;51.538;6.728;2023-07-30T02:32:34;18.60;99.90
19085;DHT22;9675;51.538;6.728;2023-07-30T02:35:01;18.60;99.90
19085;DHT22;9675;51.538;6.728;2023-07-30T02:37:28;18.60;99.90
19085;DHT22;9675;51.538;6.728;2023-07-30T02:39:55;18.50;99.90
19085;DHT22;9675;51.538;6.728;2023-07-30T02:42:22;18.50;99.90
19085;DHT22;9675;51.538;6.728;2023-07-30T02:44:51;18.40;99.90
19085;DHT22;9675;51.538;6.728;2023-07-30T02:47:18;18.40;99.90
19085;DHT22;9675;51.538;6.728;2023-07-30T02:49:45;18.40;99.90
19085;DHT22;9675;51.538;6.728;2023-07-30T02:52:12;18.40;99.90
19085;DHT22;9675;51.538;6.728;2023-07-30T02:54:39;18.40;99.90
19085;DHT22;9675;51.538;6.728;2023-07-30T02:57:06;18.40;99.90
19085;DHT22;9675;51.538;6.728;2023-07-30T02:59:33;18.30;99.90
19085;DHT22;9675;51.538;6.728;2023-07-30T03:02:03;18.30;99.90
19085;DHT22;9675;51.538;6.728;2023-07-30T03:04:31;18.20;99.90
19085;DHT22;9675;51.538;6.728;2023-07-30T03:06:58;18.20;99.90
19085;DHT22;9675;51.538;6.728;2023-07-30T03:09:25;18.10;99.90
19085;DHT22;9675;51.538;6.728;2023-07-30T03:11:53;18.10;99.90
19085;DHT22;9675;51.538;6.728;2023-07-30T03:14:20;18.10;99.90
19085;DHT22;9675;51.538;6.728;2023-07-30T03:16:47;18.00;99.90
19085;DHT22;9675;51.538;6.728;2023-07-30T03:19:16;18.00;99.90
19085;DHT22;9675;51.538;6.728;2023-07-30T03:21:43;18.00;99.90
19085;DHT22;9675;51.538;6.728;2023-07-30T03:24:10;18.00;99.90
19085;DHT22;9675;51.538;6.728;2023-07-30T03:26:37;18.00;99.90
19085;DHT22;9675;51.538;6.728;2023-07-30T03:29:04;18.00;99.90
19085;DHT22;9675;51.538;6.728;2023-07-30T03:31:31;18.00;99.90
19085;DHT22;9675;51.538;6.728;2023-07-30T03:33:58;18.00;99.90
19085;DHT22;9675;51.538;6.728;2023-07-30T03:36:27;18.00;99.90
19085;DHT22;9675;51.538;6.728;2023-07-30T03:38:54;17.90;99.90
19085;DHT22;9675;51.538;6.728;2023-07-30T03:41:20;17.90;99.90
19085;DHT22;9675;51.538;6.728;2023-07-30T03:43:48;17.90;99.90
19085;DHT22;9675;51.538;6.728;2023-07-30T03:46:15;17.90;99.90
19085;DHT22;9675;51.538;6.728;2023-07-30T03:48:42;17.90;99.90
19085;DHT22;9675;51.538;6.728;2023-07-30T03:51:09;17.80;99.90
19085;DHT22;9675;51.538;6.728;2023-07-30T03:53:37;17.80;99.90
19085;DHT22;9675;51.538;6.728;2023-07-30T03:56:04;17.70;99.90
19085;DHT22;9675;51.538;6.728;2023-07-30T03:58:31;17.70;99.90
19085;DHT22;9675;51.538;6.728;2023-07-30T04:00:58;17.60;99.90
19085;DHT22;9675;51.538;6.728;2023-07-30T04:03:25;17.60;99.90
19085;DHT22;9675;51.538;6.728;2023-07-30T04:05:52;17.60;99.90
19085;DHT22;9675;51.538;6.728;2023-07-30T04:08:19;17.60;99.90
19085;DHT22;9675;51.538;6.728;2023-07-30T04:10:48;17.60;99.90
19085;DHT22;9675;51.538;6.728;2023-07-30T04:13:16;17.60;99.90
19085;DHT22;9675;51.538;6.728;2023-07-30T04:15:43;17.60;99.90
19085;DHT22;9675;51.538;6.728;2023-07-30T04:18:10;17.60;99.90
19085;DHT22;9675;51.538;6.728;2023-07-30T04:20:37;17.60;99.90
19085;DHT22;9675;51.538;6.728;2023-07-30T04:23:04;17.60;99.90
19085;DHT22;9675;51.538;6.728;2023-07-30T04:25:31;17.60;99.90
19085;DHT22;9675;51.538;6.728;2023-07-30T04:27:59;17.60;99.90
19085;DHT22;9675;51.538;6.728;2023-07-30T04:30:26;17.70;99.90
19085;DHT22;9675;51.538;6.728;2023-07-30T04:32:53;17.60;99.90
19085;DHT22;9675;51.538;6.728;2023-07-30T04:35:20;17.70;99.90
19085;DHT22;9675;51.538;6.728;2023-07-30T04:37:47;17.70;99.90
19085;DHT22;9675;51.538;6.728;2023-07-30T04:40:14;17.60;99.90
19085;DHT22;9675;51.538;6.728;2023-07-30T04:42:41;17.60;99.90
19085;DHT22;9675;51.538;6.728;2023-07-30T04:45:10;17.60;99.90
19085;DHT22;9675;51.538;6.728;2023-07-30T04:47:37;17.60;99.90
19085;DHT22;9675;51.538;6.728;2023-07-30T04:50:04;17.70;99.90
19085;DHT22;9675;51.538;6.728;2023-07-30T04:52:32;17.60;99.90
19085;DHT22;9675;51.538;6.728;2023-07-30T04:54:59;17.60;99.90
19085;DHT22;9675;51.538;6.728;2023-07-30T04:57:26;17.60;99.90
19085;DHT22;9675;51.538;6.728;2023-07-30T04:59:53;17.70;99.90
19085;DHT22;9675;51.538;6.728;2023-07-30T05:02:21;17.70;99.90
19085;DHT22;9675;51.538;6.728;2023-07-30T05:04:48;17.60;99.90
19085;DHT22;9675;51.538;6.728;2023-07-30T05:07:16;17.60;99.90
19085;DHT22;9675;51.538;6.728;2023-07-30T05:09:43;17.70;99.90
19085;DHT22;9675;51.538;6.728;2023-07-30T05:12:10;17.70;99.90
19085;DHT22;9675;51.538;6.728;2023-07-30T05:14:37;17.60;99.90
19085;DHT22;9675;51.538;6.728;2023-07-30T05:17:04;17.60;99.90
19085;DHT22;9675;51.538;6.728;2023-07-30T05:19:33;17.60;99.90
19085;DHT22;9675;51.538;6.728;2023-07-30T05:22:00;17.60;99.90
19085;DHT22;9675;51.538;6.728;2023-07-30T05:24:27;17.70;99.90
19085;DHT22;9675;51.538;6.728;2023-07-30T05:26:54;17.70;99.90
19085;DHT22;9675;51.538;6.728;2023-07-30T05:29:21;17.70;99.90
19085;DHT22;9675;51.538;6.728;2023-07-30T05:31:48;17.70;99.90
19085;DHT22;9675;51.538;6.728;2023-07-30T05:34:15;17.70;99.90
19085;DHT22;9675;51.538;6.728;2023-07-30T05:36:44;17.70;99.90
19085;DHT22;9675;51.538;6.728;2023-07-30T05:39:11;17.70;99.90
19085;DHT22;9675;51.538;6.728;2023-07-30T05:41:38;17.70;99.90
19085;DHT22;9675;51.538;6.728;2023-07-30T05:44:05;17.70;99.90
19085;DHT22;9675;51.538;6.728;2023-07-30T05:46:32;17.80;99.90
19085;DHT22;9675;51.538;6.728;2023-07-30T05:48:59;17.70;99.90
19085;DHT22;9675;51.538;6.728;2023-07-30T05:51:26;17.70;99.90
19085;DHT22;9675;51.538;6.728;2023-07-30T05:53:55;17.70;99.90
19085;DHT22;9675;51.538;6.728;2023-07-30T05:56:22;17.70;99.90
19085;DHT22;9675;51.538;6.728;2023-07-30T05:58:49;17.70;99.90
19085;DHT22;9675;51.538;6.728;2023-07-30T06:01:16;17.70;99.90
19085;DHT22;9675;51.538;6.728;2023-07-30T06:03:43;17.80;99.90
19085;DHT22;9675;51.538;6.728;2023-07-30T06:06:10;17.80;99.90
19085;DHT22;9675;51.538;6.728;2023-07-30T06:08:37;17.80;99.90
19085;DHT22;9675;51.538;6.728;2023-07-30T06:11:05;17.80;99.90
19085;DHT22;9675;51.538;6.728;2023-07-30T06:13:33;17.90;99.90
19085;DHT22;9675;51.538;6.728;2023-07-30T06:16:00;17.90;99.90
19085;DHT22;9675;51.538;6.728;2023-07-30T06:18:26;17.90;99.90
19085;DHT22;9675;51.538;6.728;2023-07-30T06:20:53;17.90;99.90
19085;DHT22;9675;51.538;6.728;2023-07-30T06:23:20;17.90;99.90
19085;DHT22;9675;51.538;6.728;2023-07-30T06:25:48;17.90;99.90
19085;DHT22;9675;51.538;6.728;2023-07-30T06:28:16;17.90;99.90
19085;DHT22;9675;51.538;6.728;2023-07-30T06:30:43;17.90;99.90
19085;DHT22;9675;51.538;6.728;2023-07-30T06:33:10;17.90;99.90
19085;DHT22;9675;51.538;6.728;2023-07-30T06:35:37;17.90;99.90
19085;DHT22;9675;51.538;6.728;2023-07-30T06:38:06;17.90;99.90
19085;DHT22;9675;51.538;6.728;2023-07-30T06:40:34;17.90;99.90
19085;DHT22;9675;51.538;6.728;2023-07-30T06:43:01;17.90;99.90
19085;DHT22;9675;51.538;6.728;2023-07-30T06:45:30;18.00;99.90
19085;DHT22;9675;51.538;6.728;2023-07-30T06:47:57;17.90;99.90
19085;DHT22;9675;51.538;6.728;2023-07-30T06:50:24;17.90;99.90
19085;DHT22;9675;51.538;6.728;2023-07-30T06:52:51;17.90;99.90
19085;DHT22;9675;51.538;6.728;2023-07-30T06:55:18;17.90;99.90
19085;DHT22;9675;51.538;6.728;2023-07-30T06:57:45;17.90;99.90
19085;DHT22;9675;51.538;6.728;2023-07-30T07:00:13;17.90;99.90
19085;DHT22;9675;51.538;6.728;2023-07-30T07:02:48;17.90;99.90
19085;DHT22;9675;51.538;6.728;2023-07-30T07:05:15;17.90;99.90
19085;DHT22;9675;51.538;6.728;2023-07-30T07:07:42;17.90;99.90
19085;DHT22;9675;51.538;6.728;2023-07-30T07:10:09;18.00;99.90
19085;DHT22;9675;51.538;6.728;2023-07-30T07:12:37;18.00;99.90
19085;DHT22;9675;51.538;6.728;2023-07-30T07:15:05;18.00;99.90
19085;DHT22;9675;51.538;6.728;2023-07-30T07:17:32;18.00;99.90
19085;DHT22;9675;51.538;6.728;2023-07-30T07:20:02;18.00;99.90
19085;DHT22;9675;51.538;6.728;2023-07-30T07:22:30;18.10;99.90
19085;DHT22;9675;51.538;6.728;2023-07-30T07:24:57;18.10;99.90
19085;DHT22;9675;51.538;6.728;2023-07-30T07:27:24;18.10;99.90
19085;DHT22;9675;51.538;6.728;2023-07-30T07:29:52;18.10;99.90
19085;DHT22;9675;51.538;6.728;2023-07-30T07:32:19;18.10;99.90
19085;DHT22;9675;51.538;6.728;2023-07-30T07:34:46;18.10;99.90
19085;DHT22;9675;51.538;6.728;2023-07-30T07:37:15;18.10;99.90
19085;DHT22;9675;51.538;6.728;2023-07-30T07:39:44;18.10;99.90
19085;DHT22;9675;51.538;6.728;2023-07-30T07:42:11;18.20;99.90
19085;DHT22;9675;51.538;6.728;2023-07-30T07:44:39;18.20;99.90
19085;DHT22;9675;51.538;6.728;2023-07-30T07:47:06;18.20;99.90
19085;DHT22;9675;51.538;6.728;2023-07-30T07:49:33;18.20;99.90
19085;DHT22;9675;51.538;6.728;2023-07-30T07:52:00;18.20;99.90
19085;DHT22;9675;51.538;6.728;2023-07-30T07:54:28;18.30;99.90
19085;DHT22;9675;51.538;6.728;2023-07-30T07:56:55;18.30;99.90
19085;DHT22;9675;51.538;6.728;2023-07-30T07:59:23;18.30;99.90
19085;DHT22;9675;51.538;6.728;2023-07-30T08:01:50;18.30;99.90
19085;DHT22;9675;51.538;6.728;2023-07-30T08:04:17;18.30;99.90
19085;DHT22;9675;51.538;6.728;2023-07-30T08:06:44;18.40;99.90
19085;DHT22;9675;51.538;6.728;2023-07-30T08:09:11;18.40;99.90
19085;DHT22;9675;51.538;6.728;2023-07-30T08:11:39;18.40;99.90
19085;DHT22;9675;51.538;6.728;2023-07-30T08:14:06;18.40;99.90
19085;DHT22;9675;51.538;6.728;2023-07-30T08:16:33;18.50;99.90
19085;DHT22;9675;51.538;6.728;2023-07-30T08:19:00;18.50;99.90
19085;DHT22;9675;51.538;6.728;2023-07-30T08:21:27;18.50;99.90
19085;DHT22;9675;51.538;6.728;2023-07-30T08:23:54;18.60;99.90
19085;DHT22;9675;51.538;6.728;2023-07-30T08:26:21;18.60;99.90
19085;DHT22;9675;51.538;6.728;2023-07-30T08:28:49;18.60;99.90
19085;DHT22;9675;51.538;6.728;2023-07-30T08:31:16;18.60;99.90
19085;DHT22;9675;51.538;6.728;2023-07-30T08:33:43;18.60;99.90
19085;DHT22;9675;51.538;6.728;2023-07-30T08:36:10;18.70;99.90
19085;DHT22;9675;51.538;6.728;2023-07-30T08:38:37;18.70;99.90
19085;DHT22;9675;51.538;6.728;2023-07-30T08:41:04;18.80;99.90
19085;DHT22;9675;51.538;6.728;2023-07-30T08:43:31;18.80;99.90
19085;DHT22;9675;51.538;6.728;2023-07-30T08:46:01;18.80;99.90
19085;DHT22;9675;51.538;6.728;2023-07-30T08:48:28;18.90;99.90
19085;DHT22;9675;51.538;6.728;2023-07-30T08:50:57;18.90;99.90
19085;DHT22;9675;51.538;6.728;2023-07-30T08:53:24;19.00;99.90
19085;DHT22;9675;51.538;6.728;2023-07-30T08:55:53;19.00;99.90
19085;DHT22;9675;51.538;6.728;2023-07-30T08:58:23;19.00;99.90
19085;DHT22;9675;51.538;6.728;2023-07-30T09:00:53;19.10;99.90
19085;DHT22;9675;51.538;6.728;2023-07-30T09:03:24;19.10;99.90
19085;DHT22;9675;51.538;6.728;2023-07-30T09:05:54;19.20;99.90
19085;DHT22;9675;51.538;6.728;2023-07-30T09:08:21;19.20;99.90
19085;DHT22;9675;51.538;6.728;2023-07-30T09:10:49;19.20;99.90
19085;DHT22;9675;51.538;6.728;2023-07-30T09:13:21;19.30;99.90
19085;DHT22;9675;51.538;6.728;2023-07-30T09:15:49;19.30;99.90
19085;DHT22;9675;51.538;6.728;2023-07-30T09:18:17;19.40;99.90
19085;DHT22;9675;51.538;6.728;2023-07-30T09:20:45;19.40;99.90
19085;DHT22;9675;51.538;6.728;2023-07-30T09:23:14;19.50;99.90
19085;DHT22;9675;51.538;6.728;2023-07-30T09:25:41;19.60;99.90
19085;DHT22;9675;51.538;6.728;2023-07-30T09:28:10;19.60;99.90
19085;DHT22;9675;51.538;6.728;2023-07-30T09:30:37;19.70;99.90
19085;DHT22;9675;51.538;6.728;2023-07-30T09:33:04;19.80;99.90
19085;DHT22;9675;51.538;6.728;2023-07-30T09:35:33;19.80;99.90
19085;DHT22;9675;51.538;6.728;2023-07-30T09:38:03;19.90;99.90
19085;DHT22;9675;51.538;6.728;2023-07-30T09:40:33;20.00;99.90
19085;DHT22;9675;51.538;6.728;2023-07-30T09:43:03;20.10;99.90
19085;DHT22;9675;51.538;6.728;2023-07-30T09:45:34;20.10;99.90
19085;DHT22;9675;51.538;6.728;2023-07-30T09:48:03;20.30;99.90
19085;DHT22;9675;51.538;6.728;2023-07-30T09:50:31;20.30;99.90
19085;DHT22;9675;51.538;6.728;2023-07-30T09:53:02;20.40;99.90
19085;DHT22;9675;51.538;6.728;2023-07-30T09:55:30;20.50;99.90
19085;DHT22;9675;51.538;6.728;2023-07-30T09:57:57;20.50;99.90
19085;DHT22;9675;51.538;6.728;2023-07-30T10:00:25;20.60;99.90
19085;DHT22;9675;51.538;6.728;2023-07-30T10:02:58;20.70;99.90
19085;DHT22;9675;51.538;6.728;2023-07-30T10:05:28;20.80;99.90
19085;DHT22;9675;51.538;6.728;2023-07-30T10:08:02;20.80;99.90
19085;DHT22;9675;51.538;6.728;2023-07-30T10:10:41;20.90;99.90
19085;DHT22;9675;51.538;6.728;2023-07-30T10:13:11;20.90;99.90
19085;DHT22;9675;51.538;6.728;2023-07-30T10:15:39;21.00;99.90
19085;DHT22;9675;51.538;6.728;2023-07-30T10:18:06;21.00;99.90
19085;DHT22;9675;51.538;6.728;2023-07-30T10:20:34;21.00;99.90
19085;DHT22;9675;51.538;6.728;2023-07-30T10:23:04;21.10;99.90
19085;DHT22;9675;51.538;6.728;2023-07-30T10:25:45;21.10;99.90
19085;DHT22;9675;51.538;6.728;2023-07-30T10:28:26;21.20;99.90
19085;DHT22;9675;51.538;6.728;2023-07-30T10:30:58;21.20;99.90
19085;DHT22;9675;51.538;6.728;2023-07-30T10:33:44;21.20;99.90
19085;DHT22;9675;51.538;6.728;2023-07-30T10:36:13;21.20;99.90
19085;DHT22;9675;51.538;6.728;2023-07-30T10:38:40;21.30;99.90
19085;DHT22;9675;51.538;6.728;2023-07-30T10:41:11;21.30;99.90
19085;DHT22;9675;51.538;6.728;2023-07-30T10:43:43;21.30;99.90
19085;DHT22;9675;51.538;6.728;2023-07-30T10:46:14;21.40;99.90
19085;DHT22;9675;51.538;6.728;2023-07-30T10:48:43;21.40;99.90
19085;DHT22;9675;51.538;6.728;2023-07-30T10:51:13;21.50;99.90
19085;DHT22;9675;51.538;6.728;2023-07-30T10:53:42;21.50;99.90
19085;DHT22;9675;51.538;6.728;2023-07-30T10:56:12;21.70;99.90
19085;DHT22;9675;51.538;6.728;2023-07-30T10:58:40;21.70;99.90
19085;DHT22;9675;51.538;6.728;2023-07-30T11:01:09;21.80;99.90
19085;DHT22;9675;51.538;6.728;2023-07-30T11:03:36;21.90;99.90
19085;DHT22;9675;51.538;6.728;2023-07-30T11:06:04;22.00;99.90
19085;DHT22;9675;51.538;6.728;2023-07-30T11:08:34;22.00;99.90
19085;DHT22;9675;51.538;6.728;2023-07-30T11:11:03;22.10;99.90
19085;DHT22;9675;51.538;6.728;2023-07-30T11:13:36;22.10;99.90
19085;DHT22;9675;51.538;6.728;2023-07-30T11:16:05;22.20;99.90
19085;DHT22;9675;51.538;6.728;2023-07-30T11:18:33;22.20;99.90
19085;DHT22;9675;51.538;6.728;2023-07-30T11:21:04;22.20;99.90
19085;DHT22;9675;51.538;6.728;2023-07-30T11:23:33;22.20;99.90
19085;DHT22;9675;51.538;6.728;2023-07-30T11:26:02;22.30;99.90
19085;DHT22;9675;51.538;6.728;2023-07-30T11:28:31;22.30;99.90
19085;DHT22;9675;51.538;6.728;2023-07-30T11:31:01;22.30;99.90
19085;DHT22;9675;51.538;6.728;2023-07-30T11:33:30;22.30;99.90
19085;DHT22;9675;51.538;6.728;2023-07-30T11:35:58;22.40;99.90
19085;DHT22;9675;51.538;6.728;2023-07-30T11:38:27;22.40;99.90
19085;DHT22;9675;51.538;6.728;2023-07-30T11:40:56;22.40;99.90
19085;DHT22;9675;51.538;6.728;2023-07-30T11:43:24;22.40;99.90
19085;DHT22;9675;51.538;6.728;2023-07-30T11:46:07;22.50;99.90
19085;DHT22;9675;51.538;6.728;2023-07-30T11:48:35;22.50;99.90
19085;DHT22;9675;51.538;6.728;2023-07-30T11:51:02;22.50;99.90
19085;DHT22;9675;51.538;6.728;2023-07-30T11:53:46;22.60;99.90
19085;DHT22;9675;51.538;6.728;2023-07-30T11:56:17;22.60;99.90
19085;DHT22;9675;51.538;6.728;2023-07-30T11:58:45;22.70;99.90
19085;DHT22;9675;51.538;6.728;2023-07-30T12:01:14;22.80;99.90
19085;DHT22;9675;51.538;6.728;2023-07-30T12:03:42;22.80;99.90
19085;DHT22;9675;51.538;6.728;2023-07-30T12:06:09;22.90;99.90
19085;DHT22;9675;51.538;6.728;2023-07-30T12:08:38;22.90;99.90
19085;DHT22;9675;51.538;6.728;2023-07-30T12:11:06;23.00;99.90
19085;DHT22;9675;51.538;6.728;2023-07-30T12:13:41;23.10;99.90
19085;DHT22;9675;51.538;6.728;2023-07-30T12:16:09;23.20;99.90
19085;DHT22;9675;51.538;6.728;2023-07-30T12:18:38;23.20;99.90
19085;DHT22;9675;51.538;6.728;2023-07-30T12:21:07;23.30;99.90
19085;DHT22;9675;51.538;6.728;2023-07-30T12:23:36;23.40;99.90
19085;DHT22;9675;51.538;6.728;2023-07-30T12:26:04;23.50;99.90
19085;DHT22;9675;51.538;6.728;2023-07-30T12:28:31;23.60;99.90
19085;DHT22;9675;51.538;6.728;2023-07-30T12:30:59;23.60;99.90
19085;DHT22;9675;51.538;6.728;2023-07-30T12:33:26;23.70;99.90
19085;DHT22;9675;51.538;6.728;2023-07-30T12:35:55;23.80;99.90
19085;DHT22;9675;51.538;6.728;2023-07-30T12:38:22;23.90;99.90
19085;DHT22;9675;51.538;6.728;2023-07-30T12:40:49;23.90;99.90
19085;DHT22;9675;51.538;6.728;2023-07-30T12:43:16;24.00;99.90
19085;DHT22;9675;51.538;6.728;2023-07-30T12:45:46;24.10;99.90
19085;DHT22;9675;51.538;6.728;2023-07-30T12:48:13;24.10;99.90
19085;DHT22;9675;51.538;6.728;2023-07-30T12:50:40;24.20;99.90
19085;DHT22;9675;51.538;6.728;2023-07-30T12:53:08;24.20;99.90
19085;DHT22;9675;51.538;6.728;2023-07-30T12:55:35;24.20;99.90
19085;DHT22;9675;51.538;6.728;2023-07-30T12:58:03;24.30;99.90
19085;DHT22;9675;51.538;6.728;2023-07-30T13:00:31;24.30;99.90
19085;DHT22;9675;51.538;6.728;2023-07-30T13:02:58;24.30;99.90
19085;DHT22;9675;51.538;6.728;2023-07-30T13:05:25;24.20;99.90
19085;DHT22;9675;51.538;6.728;2023-07-30T13:07:52;24.20;99.90
19085;DHT22;9675;51.538;6.728;2023-07-30T13:10:21;24.20;99.90
19085;DHT22;9675;51.538;6.728;2023-07-30T13:12:48;24.20;99.90
19085;DHT22;9675;51.538;6.728;2023-07-30T13:15:15;24.20;99.90
19085;DHT22;9675;51.538;6.728;2023-07-30T13:17:42;24.20;99.90
19085;DHT22;9675;51.538;6.728;2023-07-30T13:20:10;24.20;99.90
19085;DHT22;9675;51.538;6.728;2023-07-30T13:22:37;24.20;99.90
19085;DHT22;9675;51.538;6.728;2023-07-30T13:25:05;24.30;99.90
19085;DHT22;9675;51.538;6.728;2023-07-30T13:27:33;24.30;99.90
19085;DHT22;9675;51.538;6.728;2023-07-30T13:30:00;24.30;99.90
19085;DHT22;9675;51.538;6.728;2023-07-30T13:32:28;24.40;99.90
19085;DHT22;9675;51.538;6.728;2023-07-30T13:34:55;24.30;99.90
19085;DHT22;9675;51.538;6.728;2023-07-30T13:37:22;24.40;99.90
19085;DHT22;9675;51.538;6.728;2023-07-30T13:39:49;24.40;99.90
19085;DHT22;9675;51.538;6.728;2023-07-30T13:42:15;24.40;99.90
19085;DHT22;9675;51.538;6.728;2023-07-30T13:44:44;24.50;99.90
19085;DHT22;9675;51.538;6.728;2023-07-30T13:47:11;24.50;99.90
19085;DHT22;9675;51.538;6.728;2023-07-30T13:49:38;24.40;99.90
19085;DHT22;9675;51.538;6.728;2023-07-30T13:52:06;24.50;99.90
19085;DHT22;9675;51.538;6.728;2023-07-30T13:54:33;24.50;99.90
19085;DHT22;9675;51.538;6.728;2023-07-30T13:57:02;24.50;99.90
19085;DHT22;9675;51.538;6.728;2023-07-30T13:59:30;24.60;99.90
19085;DHT22;9675;51.538;6.728;2023-07-30T14:01:58;24.60;99.90
19085;DHT22;9675;51.538;6.728;2023-07-30T14:04:25;24.50;99.90
19085;DHT22;9675;51.538;6.728;2023-07-30T14:06:52;24.50;99.90
19085;DHT22;9675;51.538;6.728;2023-07-30T14:09:20;24.50;99.90
19085;DHT22;9675;51.538;6.728;2023-07-30T14:11:47;24.50;99.90
19085;DHT22;9675;51.538;6.728;2023-07-30T14:14:14;24.50;99.90
19085;DHT22;9675;51.538;6.728;2023-07-30T14:16:41;24.50;99.90
19085;DHT22;9675;51.538;6.728;2023-07-30T14:19:09;24.40;99.90
19085;DHT22;9675;51.538;6.728;2023-07-30T14:21:36;24.40;99.90
19085;DHT22;9675;51.538;6.728;2023-07-30T14:24:05;24.40;99.90
19085;DHT22;9675;51.538;6.728;2023-07-30T14:26:32;24.50;99.90
19085;DHT22;9675;51.538;6.728;2023-07-30T14:28:59;24.40;99.90
19085;DHT22;9675;51.538;6.728;2023-07-30T14:31:26;24.40;99.90
19085;DHT22;9675;51.538;6.728;2023-07-30T14:33:53;24.40;99.90
19085;DHT22;9675;51.538;6.728;2023-07-30T14:36:22;24.50;99.90
19085;DHT22;9675;51.538;6.728;2023-07-30T14:38:49;24.50;99.90
19085;DHT22;9675;51.538;6.728;2023-07-30T14:41:16;24.50;99.90
19085;DHT22;9675;51.538;6.728;2023-07-30T14:43:43;24.50;99.90
19085;DHT22;9675;51.538;6.728;2023-07-30T14:46:10;24.50;99.90
19085;DHT22;9675;51.538;6.728;2023-07-30T14:48:39;24.50;99.90
19085;DHT22;9675;51.538;6.728;2023-07-30T14:51:06;24.50;99.90
19085;DHT22;9675;51.538;6.728;2023-07-30T14:53:35;24.50;99.90
19085;DHT22;9675;51.538;6.728;2023-07-30T14:56:02;24.50;99.90
19085;DHT22;9675;51.538;6.728;2023-07-30T14:58:29;24.50;99.90
19085;DHT22;9675;51.538;6.728;2023-07-30T15:00:56;24.50;99.90
19085;DHT22;9675;51.538;6.728;2023-07-30T15:03:23;24.50;99.90
19085;DHT22;9675;51.538;6.728;2023-07-30T15:05:51;24.40;99.90
19085;DHT22;9675;51.538;6.728;2023-07-30T15:08:18;24.40;99.90
19085;DHT22;9675;51.538;6.728;2023-07-30T15:10:46;24.50;99.90
19085;DHT22;9675;51.538;6.728;2023-07-30T15:13:14;24.50;99.90
19085;DHT22;9675;51.538;6.728;2023-07-30T15:15:41;24.50;99.90
19085;DHT22;9675;51.538;6.728;2023-07-30T15:18:08;24.50;99.90
19085;DHT22;9675;51.538;6.728;2023-07-30T15:20:35;24.50;99.90
19085;DHT22;9675;51.538;6.728;2023-07-30T15:23:03;24.50;99.90
19085;DHT22;9675;51.538;6.728;2023-07-30T15:25:30;24.50;99.90
19085;DHT22;9675;51.538;6.728;2023-07-30T15:27:59;24.50;99.90
19085;DHT22;9675;51.538;6.728;2023-07-30T15:30:26;24.40;99.90
19085;DHT22;9675;51.538;6.728;2023-07-30T15:32:53;24.50;99.90
19085;DHT22;9675;51.538;6.728;2023-07-30T15:35:20;24.50;99.90
19085;DHT22;9675;51.538;6.728;2023-07-30T15:37:47;24.50;99.90
19085;DHT22;9675;51.538;6.728;2023-07-30T15:40:15;24.40;99.90
19085;DHT22;9675;51.538;6.728;2023-07-30T15:42:42;24.40;99.90
19085;DHT22;9675;51.538;6.728;2023-07-30T15:45:10;24.40;99.90
19085;DHT22;9675;51.538;6.728;2023-07-30T15:47:38;24.50;99.90
19085;DHT22;9675;51.538;6.728;2023-07-30T15:50:06;24.50;99.90